Time;durP1;ratioP1;P1;durP2;ratioP2;P2;SDS_P1;SDS_P2;PMS_P1;PMS_P2;Temp;Humidity;BMP_temperature;BMP_pressure;BME280_temperature;BME280_humidity;BME280_pressure;Samples;Min_cycle;Max_cycle;Signal;HPM_P1;HPM_P2
2021/07/13 00:02:39;;;;;;;12.40;10.38;;;;;;;27.52;100.00;100879.31;5115486;28;20360;-77
2021/07/13 00:05:25;;;;;;;12.07;10.50;;;;;;;27.52;100.00;100879.31;5116146;28;20085;-77
2021/07/13 00:08:10;;;;;;;12.88;10.60;;;;;;;27.45;100.00;100888.91;5115113;28;20020;-78
2021/07/13 00:10:56;;;;;;;11.93;10.68;;;;;;;27.36;100.00;100885.16;5115483;28;20028;-77
2021/07/13 00:13:42;;;;;;;11.95;10.45;;;;;;;27.28;100.00;100889.47;5115805;28;20020;-77
2021/07/13 00:16:28;;;;;;;13.40;11.13;;;;;;;27.34;100.00;100883.56;5101656;28;20096;-78
2021/07/13 00:19:13;;;;;;;12.20;10.85;;;;;;;27.22;100.00;100882.78;5100406;28;20032;-78
2021/07/13 00:22:00;;;;;;;12.98;10.57;;;;;;;27.06;100.00;100879.63;5100273;28;20030;-78
2021/07/13 00:24:45;;;;;;;12.18;10.90;;;;;;;26.87;100.00;100874.06;5115454;28;20024;-78
2021/07/13 00:27:31;;;;;;;12.95;10.85;;;;;;;27.11;100.00;100881.91;5100692;28;20333;-78
2021/07/13 00:30:19;;;;;;;16.92;10.85;;;;;;;27.06;100.00;100878.75;5114705;28;20026;-78
2021/07/13 00:33:05;;;;;;;14.00;11.52;;;;;;;27.02;100.00;100869.22;5114904;28;20028;-78
2021/07/13 00:35:51;;;;;;;14.13;11.20;;;;;;;27.02;100.00;100871.94;5114913;28;20019;-79
2021/07/13 00:38:36;;;;;;;13.80;10.90;;;;;;;26.71;100.00;100864.66;5114981;28;20028;-78
2021/07/13 00:41:22;;;;;;;12.35;11.05;;;;;;;26.86;100.00;100866.09;5113424;28;20023;-78
2021/07/13 00:44:08;;;;;;;12.07;10.27;;;;;;;27.26;100.00;100870.78;5114612;28;20080;-76
2021/07/13 00:46:55;;;;;;;16.85;10.95;;;;;;;27.16;100.00;100868.91;5114912;28;20162;-76
2021/07/13 00:49:44;;;;;;;16.13;10.85;;;;;;;26.98;100.00;100871.34;5100226;28;20019;-76
2021/07/13 00:52:31;;;;;;;13.85;11.57;;;;;;;26.71;100.00;100872.72;5114942;28;20485;-76
2021/07/13 00:55:17;;;;;;;16.08;11.10;;;;;;;26.69;100.00;100867.47;5114140;28;20050;-76
2021/07/13 00:58:05;;;;;;;12.85;11.43;;;;;;;26.88;100.00;100870.38;5114525;28;20076;-76
2021/07/13 01:00:51;;;;;;;12.70;10.98;;;;;;;26.87;100.00;100875.88;5101284;28;20368;-77
2021/07/13 01:03:37;;;;;;;12.07;10.77;;;;;;;26.70;100.00;100869.22;5099497;28;20447;-76
2021/07/13 01:06:28;;;;;;;12.98;11.65;;;;;;;26.66;100.00;100872.25;5114833;28;20424;-77
2021/07/13 01:09:27;;;;;;;13.57;11.13;;;;;;;26.65;100.00;100866.00;5114229;28;20020;-77
2021/07/13 01:12:16;;;;;;;13.13;11.15;;;;;;;26.89;100.00;100868.56;5099561;28;20035;-76
2021/07/13 01:15:06;;;;;;;12.82;11.15;;;;;;;26.61;100.00;100866.41;5113767;28;20054;-77
2021/07/13 01:18:11;;;;;;;16.30;11.02;;;;;;;26.95;100.00;100860.81;5099800;28;20051;-77
2021/07/13 01:21:28;;;;;;;14.93;12.07;;;;;;;26.73;100.00;100868.94;5114167;28;20019;-77
2021/07/13 01:24:28;;;;;;;18.63;12.05;;;;;;;26.70;100.00;100866.53;5114386;28;20028;-77
2021/07/13 01:27:33;;;;;;;14.02;11.90;;;;;;;26.60;100.00;100878.16;5099635;28;20035;-77
2021/07/13 01:30:25;;;;;;;18.60;12.48;;;;;;;26.53;100.00;100875.03;5114004;28;20027;-76
2021/07/13 01:33:18;;;;;;;19.58;12.48;;;;;;;26.36;100.00;100878.25;5113970;28;20394;-78
2021/07/13 01:36:08;;;;;;;26.13;13.38;;;;;;;26.28;100.00;100883.38;5114406;28;20395;-77
2021/07/13 01:38:57;;;;;;;32.33;13.98;;;;;;;26.50;100.00;100885.19;5099572;28;20035;-78
2021/07/13 01:41:47;;;;;;;17.40;12.35;;;;;;;26.11;100.00;100873.13;5100147;28;20364;-77
2021/07/13 01:44:35;;;;;;;15.05;11.55;;;;;;;25.90;100.00;100877.47;5098344;28;20016;-77
2021/07/13 01:47:22;;;;;;;17.17;12.40;;;;;;;25.91;100.00;100879.16;5099727;28;20059;-77
2021/07/13 01:50:09;;;;;;;16.25;12.35;;;;;;;25.62;100.00;100877.88;5112744;28;20024;-77
2021/07/13 01:52:56;;;;;;;16.85;14.00;;;;;;;25.82;100.00;100877.22;5113577;28;20027;-78
2021/07/13 01:55:43;;;;;;;16.58;12.85;;;;;;;25.83;100.00;100873.53;5098372;28;20122;-77
2021/07/13 04:35:59;;;;;;;20.83;17.27;;;;;;;25.80;100.00;100902.47;5299756;23;20076;-77
2021/07/13 04:38:45;;;;;;;27.65;17.40;;;;;;;25.90;100.00;100900.75;5034430;28;20076;-78
2021/07/13 04:41:31;;;;;;;22.75;18.20;;;;;;;25.43;100.00;100898.22;5021549;28;20140;-78
2021/07/13 04:44:17;;;;;;;21.00;16.35;;;;;;;25.77;100.00;100903.56;5033563;28;20030;-78
2021/07/13 04:47:03;;;;;;;23.05;17.85;;;;;;;25.72;100.00;100915.63;5034220;28;20067;-78
2021/07/13 04:49:49;;;;;;;24.40;18.27;;;;;;;25.43;100.00;100914.31;5033753;28;20056;-78
2021/07/13 04:52:35;;;;;;;22.50;18.77;;;;;;;25.61;100.00;100910.22;5020701;28;20453;-77
2021/07/13 04:55:21;;;;;;;20.25;18.15;;;;;;;25.45;100.00;100910.53;5033505;28;20039;-77
2021/07/13 04:58:07;;;;;;;35.78;20.92;;;;;;;25.81;100.00;100912.22;5034060;28;20480;-79
2021/07/13 05:00:54;;;;;;;25.05;22.30;;;;;;;25.72;100.00;100912.94;5033951;28;20064;-77
2021/07/13 05:03:39;;;;;;;23.15;20.27;;;;;;;25.83;100.00;100911.13;5033717;28;20032;-77
2021/07/13 05:06:25;;;;;;;24.50;20.45;;;;;;;25.83;100.00;100911.13;5020277;28;20170;-77
2021/07/13 05:09:11;;;;;;;25.83;18.48;;;;;;;26.32;100.00;100906.31;5019950;28;20041;-78
2021/07/13 05:11:57;;;;;;;23.65;19.73;;;;;;;26.20;100.00;100907.31;5033419;28;20029;-78
2021/07/13 05:14:43;;;;;;;22.95;19.23;;;;;;;26.20;100.00;100909.16;5033353;28;20028;-78
2021/07/13 06:35:21;;;;;;;16.35;14.48;;;;;;;28.28;100.00;100909.44;6065407;22;20024;-78
2021/07/13 06:38:06;;;;;;;17.05;13.85;;;;;;;27.81;100.00;100919.91;5016561;28;20042;-78
2021/07/13 06:40:52;;;;;;;15.55;13.75;;;;;;;28.02;100.00;100913.59;5016720;28;20036;-79
2021/07/13 06:43:38;;;;;;;17.05;13.98;;;;;;;28.54;100.00;100910.75;5003900;28;20088;-77
2021/07/13 08:39:10;;;;;;;22.92;15.00;;;;;;;33.85;94.51;100926.28;5785389;22;19921;-80
2021/07/13 08:42:03;;;;;;;23.25;15.23;;;;;;;34.19;90.41;100928.81;5041544;28;20480;-80
2021/07/13 08:44:52;;;;;;;18.42;14.40;;;;;;;34.63;88.62;100916.44;5034913;28;20029;-80
2021/07/13 08:47:39;;;;;;;21.23;14.45;;;;;;;34.72;89.88;100920.84;5035064;28;20113;-80
2021/07/13 12:01:31;;;;;;;11.57;9.50;;;;;;;35.40;50.27;100840.09;5803075;22;20053;-80
2021/07/13 12:04:17;;;;;;;11.82;9.30;;;;;;;35.78;47.43;100843.69;5034985;28;20076;-80
2021/07/13 12:07:04;;;;;;;13.98;9.88;;;;;;;35.35;48.16;100841.69;5034201;28;20021;-80
2021/07/13 12:09:49;;;;;;;12.88;9.85;;;;;;;35.97;47.86;100830.38;5020945;28;20049;-80
2021/07/13 12:12:38;;;;;;;12.85;9.52;;;;;;;36.71;49.00;100821.13;5034006;28;20033;-80
2021/07/13 12:15:24;;;;;;;13.15;10.48;;;;;;;37.17;48.18;100830.72;5019739;28;20021;-81
2021/07/13 12:18:09;;;;;;;12.57;9.52;;;;;;;37.23;48.34;100822.56;5033888;28;20021;-80
2021/07/13 12:20:55;;;;;;;13.57;9.73;;;;;;;37.61;47.51;100826.69;5033635;28;20040;-80
2021/07/13 12:23:43;;;;;;;14.07;10.40;;;;;;;37.41;46.89;100831.13;5020842;28;20044;-79
2021/07/13 12:26:31;;;;;;;12.55;9.68;;;;;;;37.35;46.71;100831.94;5020598;28;20056;-80
2021/07/13 12:29:19;;;;;;;15.23;10.55;;;;;;;37.12;48.12;100831.25;5034537;28;20443;-78
2021/07/13 12:32:16;;;;;;;12.45;10.20;;;;;;;36.76;47.81;100819.50;5034863;28;20088;-78
2021/07/13 12:35:09;;;;;;;14.38;10.00;;;;;;;37.26;46.94;100816.72;5033995;28;20033;-78
2021/07/13 12:37:55;;;;;;;12.98;10.43;;;;;;;37.39;47.04;100827.75;5021441;28;20040;-78
2021/07/13 12:40:40;;;;;;;13.20;9.77;;;;;;;37.06;46.27;100826.56;5033328;28;20030;-78
2021/07/13 12:43:26;;;;;;;14.77;9.95;;;;;;;37.14;46.03;100826.47;5033639;28;20481;-78
2021/07/13 16:06:04;;;;;;;13.70;10.80;;;;;;;34.35;54.28;100760.91;5630804;22;20374;-77
2021/07/13 16:08:50;;;;;;;19.05;10.40;;;;;;;34.49;53.90;100762.91;5056203;28;20029;-79
2021/07/13 16:11:36;;;;;;;15.48;10.70;;;;;;;34.34;52.83;100756.50;5057241;28;20025;-77
2021/07/13 16:14:22;;;;;;;17.70;11.57;;;;;;;34.09;54.57;100762.22;5040376;28;20469;-78
2021/07/13 16:17:08;;;;;;;14.93;11.10;;;;;;;34.18;54.44;100762.00;5054131;28;20028;-77
2021/07/13 16:19:54;;;;;;;19.90;10.88;;;;;;;33.92;54.29;100757.88;5055242;28;20067;-77
2021/07/13 16:22:40;;;;;;;15.82;10.80;;;;;;;34.24;53.88;100761.28;5053354;28;20452;-78
2021/07/13 16:25:26;;;;;;;18.70;11.90;;;;;;;34.13;53.59;100760.84;5055391;28;20033;-78
2021/07/13 16:28:11;;;;;;;16.90;11.23;;;;;;;34.23;54.16;100769.66;5040235;28;20020;-78
2021/07/13 16:30:57;;;;;;;11.98;10.25;;;;;;;33.94;54.37;100769.41;5055680;28;20062;-77
2021/07/13 16:33:45;;;;;;;16.42;11.38;;;;;;;34.12;55.46;100767.31;5053528;28;20126;-76
2021/07/13 16:36:31;;;;;;;14.45;11.05;;;;;;;34.07;55.16;100772.44;5054590;28;20049;-77
2021/07/13 16:39:17;;;;;;;20.02;11.07;;;;;;;33.97;55.41;100766.34;5054524;28;20040;-77
2021/07/13 16:42:04;;;;;;;15.80;10.90;;;;;;;34.11;55.56;100768.34;5055494;28;20028;-77
2021/07/13 16:44:50;;;;;;;11.93;10.73;;;;;;;34.12;55.46;100761.88;5039400;28;20029;-78
2021/07/13 18:49:42;;;;;;;20.20;12.10;;;;;;;30.98;95.33;100840.44;4975940;28;19922;-77
2021/07/13 18:52:28;;;;;;;19.42;12.75;;;;;;;31.16;94.39;100838.59;4977506;28;20054;-77
2021/07/13 18:55:14;;;;;;;16.13;12.25;;;;;;;30.97;96.27;100841.47;4978655;28;20374;-77
2021/07/13 18:58:00;;;;;;;16.63;12.70;;;;;;;30.87;97.83;100847.94;4990007;28;20030;-76
2021/07/13 19:00:46;;;;;;;120.57;32.97;;;;;;;31.11;96.76;100851.72;4991733;28;20026;-77
2021/07/13 19:03:32;;;;;;;64.15;21.83;;;;;;;30.90;97.96;100842.25;4977962;28;20491;-77
2021/07/13 19:06:18;;;;;;;19.83;12.98;;;;;;;30.84;98.85;100848.25;4977631;28;20096;-77
2021/07/13 19:09:03;;;;;;;22.10;12.48;;;;;;;30.90;98.84;100855.75;4977739;28;20023;-77
2021/07/13 19:11:49;;;;;;;19.77;12.98;;;;;;;30.97;99.04;100857.69;4978479;28;20456;-78
2021/07/13 19:14:35;;;;;;;17.38;13.20;;;;;;;30.81;99.96;100856.66;4978512;28;20034;-77
2021/07/13 19:17:21;;;;;;;21.58;13.38;;;;;;;30.83;100.00;100851.97;4978339;28;20022;-77
2021/07/13 19:20:09;;;;;;;14.55;13.05;;;;;;;30.98;99.72;100858.56;4977681;28;20027;-77
2021/07/13 19:22:55;;;;;;;32.83;16.55;;;;;;;30.79;100.00;100858.69;4977962;28;20039;-77
2021/07/13 19:25:40;;;;;;;148.90;39.13;;;;;;;30.77;100.00;100866.94;4977803;28;20027;-78
2021/07/13 19:47:36;;;;;;;19.58;15.15;;;;;;;30.52;100.00;100859.53;5668472;23;19929;-77
2021/07/13 19:50:21;;;;;;;21.70;15.07;;;;;;;30.52;100.00;100858.66;5022287;28;20017;-77
2021/07/13 19:53:07;;;;;;;24.27;14.07;;;;;;;30.49;100.00;100857.09;5036067;28;20029;-77
2021/07/13 19:55:53;;;;;;;21.52;14.85;;;;;;;29.98;100.00;100864.00;5035977;28;20365;-78
2021/07/13 19:58:42;;;;;;;26.17;16.75;;;;;;;30.18;100.00;100866.50;5022393;28;20484;-78
2021/07/13 20:01:27;;;;;;;18.48;14.57;;;;;;;29.81;100.00;100870.16;5035742;28;20033;-78
2021/07/13 20:04:13;;;;;;;21.55;15.75;;;;;;;29.74;100.00;100872.56;5035767;28;20037;-78
2021/07/13 20:06:59;;;;;;;22.38;15.45;;;;;;;29.82;100.00;100863.75;5035990;28;20339;-77
2021/07/13 20:09:45;;;;;;;22.45;14.60;;;;;;;30.10;100.00;100869.03;5022331;28;20060;-77
2021/07/13 20:12:32;;;;;;;18.45;13.77;;;;;;;30.05;100.00;100865.94;5036518;28;20524;-77
2021/07/13 20:15:18;;;;;;;22.98;14.32;;;;;;;29.77;100.00;100866.03;5022232;28;20102;-77
2021/07/13 20:18:04;;;;;;;22.17;14.15;;;;;;;29.79;100.00;100869.44;5036110;28;20025;-77
2021/07/13 20:20:50;;;;;;;19.90;14.32;;;;;;;29.72;100.00;100871.00;5035652;28;20025;-78
2021/07/13 20:23:35;;;;;;;22.88;13.88;;;;;;;29.84;100.00;100873.41;5035691;28;20033;-77
2021/07/13 20:26:21;;;;;;;16.50;13.95;;;;;;;29.46;100.00;100870.75;5035295;28;20104;-76
2021/07/13 20:29:07;;;;;;;19.15;14.55;;;;;;;29.41;100.00;100878.41;5021986;28;20056;-77
2021/07/13 20:31:53;;;;;;;15.95;13.85;;;;;;;29.37;100.00;100876.97;5035056;28;20060;-78
2021/07/13 20:34:39;;;;;;;18.63;14.82;;;;;;;29.29;100.00;100874.13;5035897;28;20087;-78
2021/07/13 20:37:25;;;;;;;22.23;14.40;;;;;;;29.36;100.00;100877.97;5035940;28;20370;-78
2021/07/13 20:40:12;;;;;;;20.02;14.25;;;;;;;29.47;100.00;100876.97;5019911;28;20358;-78
2021/07/13 20:43:02;;;;;;;22.88;14.32;;;;;;;29.53;100.00;100879.94;5035346;28;20103;-78
2021/07/13 20:45:49;;;;;;;19.63;14.52;;;;;;;29.08;100.00;100881.50;5019894;28;20035;-77
2021/07/13 20:48:35;;;;;;;22.90;14.50;;;;;;;29.15;100.00;100879.09;5015605;28;20049;-77
2021/07/13 20:51:21;;;;;;;18.38;15.50;;;;;;;29.08;100.00;100870.72;5015295;28;20110;-77
2021/07/13 20:54:07;;;;;;;16.10;14.40;;;;;;;29.37;100.00;100868.03;5015226;28;20092;-77
2021/07/13 20:56:53;;;;;;;17.13;13.68;;;;;;;29.51;100.00;100870.28;5015301;28;20443;-78
2021/07/13 20:59:38;;;;;;;20.02;13.40;;;;;;;29.54;100.00;100881.66;5015293;28;20113;-76
2021/07/13 21:02:24;;;;;;;14.70;13.15;;;;;;;29.32;100.00;100876.56;5014908;28;20033;-77
2021/07/13 21:05:10;;;;;;;15.90;12.85;;;;;;;29.21;100.00;100884.78;5015245;28;20109;-78
2021/07/13 21:07:56;;;;;;;16.25;13.63;;;;;;;29.52;100.00;100878.25;5015520;28;20466;-77
2021/07/13 21:10:42;;;;;;;19.15;13.63;;;;;;;29.33;100.00;100883.66;5015023;28;20116;-78
2021/07/13 21:13:29;;;;;;;18.17;12.95;;;;;;;29.34;100.00;100876.41;5014201;28;20037;-78
2021/07/13 21:16:14;;;;;;;18.50;13.23;;;;;;;29.38;100.00;100881.41;5012864;28;20427;-78
2021/07/13 21:19:00;;;;;;;18.55;13.52;;;;;;;29.04;100.00;100876.53;5013202;28;20447;-77
2021/07/13 21:21:46;;;;;;;14.43;12.65;;;;;;;29.12;100.00;100873.97;5014735;28;20030;-77
2021/07/13 21:24:31;;;;;;;17.15;13.65;;;;;;;29.07;100.00;100874.41;5012950;28;20108;-79
2021/07/13 21:27:17;;;;;;;15.38;13.60;;;;;;;29.21;100.00;100881.25;5014858;28;20362;-77
2021/07/13 21:30:06;;;;;;;17.67;12.63;;;;;;;29.08;100.00;100868.03;5013213;28;20398;-78
2021/07/13 21:32:52;;;;;;;16.63;13.43;;;;;;;28.98;100.00;100872.53;5014805;28;20034;-76
2021/07/13 21:35:37;;;;;;;16.77;12.73;;;;;;;29.06;100.00;100877.25;5014855;28;20112;-77
2021/07/13 21:38:23;;;;;;;17.70;13.32;;;;;;;29.04;100.00;100869.28;5014623;28;20026;-78
2021/07/13 21:41:09;;;;;;;16.30;12.95;;;;;;;28.71;100.00;100877.72;5015200;28;20021;-77
2021/07/13 21:43:55;;;;;;;18.25;13.40;;;;;;;28.61;100.00;100874.13;5014610;28;20369;-77
2021/07/13 21:46:41;;;;;;;19.48;13.32;;;;;;;28.63;100.00;100877.56;5015170;28;20030;-78
2021/07/13 22:21:36;;;;;;;15.73;12.90;;;;;;;27.95;100.00;100884.59;5688320;22;20053;-77
2021/07/13 22:24:21;;;;;;;20.83;13.60;;;;;;;27.98;100.00;100885.19;5056281;28;20025;-77
2021/07/13 22:27:07;;;;;;;17.25;13.48;;;;;;;28.02;100.00;100875.00;5056084;28;20039;-77
2021/07/13 22:29:53;;;;;;;16.58;13.60;;;;;;;27.89;100.00;100880.63;5057893;28;20094;-77
2021/07/13 22:32:43;;;;;;;14.60;13.10;;;;;;;27.93;100.00;100881.19;5057351;28;20120;-77
2021/07/13 22:35:29;;;;;;;15.55;13.27;;;;;;;27.89;100.00;100886.00;5058045;28;20500;-78
2021/07/13 22:38:15;;;;;;;15.65;12.70;;;;;;;28.14;100.00;100887.41;5057321;28;20149;-78
2021/07/13 22:41:01;;;;;;;15.27;13.20;;;;;;;28.26;100.00;100889.03;5057803;28;20056;-78
2021/07/13 22:43:47;;;;;;;15.27;13.60;;;;;;;28.29;100.00;100888.75;5057550;28;20029;-78
2021/07/13 22:46:33;;;;;;;16.65;13.20;;;;;;;28.25;100.00;100896.25;5057287;28;20052;-78
2021/07/13 22:49:19;;;;;;;19.45;12.57;;;;;;;28.25;100.00;100890.00;5057533;28;20032;-78
2021/07/13 22:52:04;;;;;;;14.95;13.50;;;;;;;28.08;100.00;100896.03;5042316;28;20032;-78
2021/07/13 22:54:50;;;;;;;16.90;13.80;;;;;;;28.06;100.00;100898.00;5057253;28;20111;-78
2021/07/13 22:57:37;;;;;;;18.25;13.10;;;;;;;27.95;100.00;100895.38;5042374;28;20053;-77
2021/07/13 23:00:23;;;;;;;18.98;13.60;;;;;;;28.19;100.00;100888.72;5057205;28;20437;-77
2021/07/13 23:10:55;;;;;;;17.90;14.27;;;;;;;28.09;100.00;100893.22;5261866;22;20402;-77
2021/07/13 23:13:41;;;;;;;18.63;13.38;;;;;;;27.95;100.00;100898.94;5035664;28;20366;-77
2021/07/13 23:16:28;;;;;;;16.48;13.30;;;;;;;28.10;100.00;100903.00;5021622;28;20033;-77
2021/07/13 23:19:16;;;;;;;18.98;13.75;;;;;;;28.12;100.00;100902.88;5035058;28;20029;-77
2021/07/13 23:22:02;;;;;;;16.63;13.15;;;;;;;27.85;100.00;100900.72;5035902;28;20413;-77
2021/07/13 23:24:48;;;;;;;18.75;14.35;;;;;;;28.09;100.00;100898.59;5035910;28;20117;-77
2021/07/13 23:27:33;;;;;;;19.67;13.68;;;;;;;27.45;100.00;100894.31;5035014;28;20056;-77
2021/07/13 23:30:20;;;;;;;15.57;13.68;;;;;;;27.70;100.00;100901.13;5022049;28;20362;-76
2021/07/13 23:33:06;;;;;;;20.80;14.05;;;;;;;27.82;100.00;100906.38;5020872;28;20025;-77
2021/07/13 23:35:52;;;;;;;15.63;13.88;;;;;;;28.13;100.00;100907.25;5033986;28;20021;-77
2021/07/13 23:38:40;;;;;;;19.10;13.30;;;;;;;28.08;100.00;100907.66;5035858;28;20116;-77
2021/07/13 23:41:26;;;;;;;22.38;14.13;;;;;;;27.74;100.00;100916.91;5035438;28;20393;-77
2021/07/13 23:44:12;;;;;;;15.85;14.25;;;;;;;27.88;100.00;100918.47;5022222;28;20063;-77
2021/07/13 23:46:58;;;;;;;17.08;13.60;;;;;;;27.58;100.00;100921.00;5021659;28;20057;-76
